Time;durP1;ratioP1;P1;durP2;ratioP2;P2;SDS_P1;SDS_P2;PMS_P1;PMS_P2;Temp;Humidity;BMP_temperature;BMP_pressure;BME280_temperature;BME280_humidity;BME280_pressure;Samples;Min_cycle;Max_cycle;Signal;HPM_P1;HPM_P2
2022/02/19 00:02:11;;;;;;;2.95;1.70;;;1.00;97.60;;;;;;5101011;28;20103;-85
2022/02/19 00:04:37;;;;;;;3.92;2.20;;;1.00;97.60;;;;;;5101787;28;20053;-84
2022/02/19 00:07:05;;;;;;;2.83;2.08;;;1.00;97.60;;;;;;5100920;28;20026;-84
2022/02/19 00:09:32;;;;;;;3.75;2.17;;;1.00;97.70;;;;;;5110815;28;20079;-84
2022/02/19 00:11:58;;;;;;;5.20;2.05;;;0.90;97.70;;;;;;5099673;28;20025;-85
2022/02/19 00:14:24;;;;;;;3.10;2.28;;;0.90;97.80;;;;;;5116754;28;20039;-85
2022/02/19 00:16:50;;;;;;;4.18;2.22;;;0.90;97.90;;;;;;5119180;28;20388;-84
2022/02/19 00:19:16;;;;;;;4.03;2.08;;;0.90;98.00;;;;;;5122670;28;20020;-84
2022/02/19 00:21:41;;;;;;;3.15;2.42;;;0.90;98.10;;;;;;5135089;28;20062;-83
2022/02/19 00:24:08;;;;;;;4.85;2.45;;;1.00;98.10;;;;;;5133280;28;20027;-83
2022/02/19 00:26:34;;;;;;;5.30;2.47;;;1.10;98.30;;;;;;5126200;28;20030;-84
2022/02/19 00:29:00;;;;;;;3.05;2.55;;;1.20;98.30;;;;;;5117745;27;20024;-82
2022/02/19 00:31:26;;;;;;;5.35;2.70;;;1.30;98.20;;;;;;5118667;28;20512;-85
2022/02/19 00:33:53;;;;;;;4.75;2.05;;;1.40;98.10;;;;;;5124061;28;20024;-83
2022/02/19 00:36:20;;;;;;;4.10;2.42;;;1.40;98.00;;;;;;5123387;28;20116;-83
2022/02/19 00:38:45;;;;;;;4.30;2.15;;;1.50;97.90;;;;;;5117815;28;20028;-82
2022/02/19 00:41:11;;;;;;;4.93;2.55;;;1.50;97.80;;;;;;5097749;28;20026;-83
2022/02/19 00:43:37;;;;;;;3.08;1.60;;;1.60;97.60;;;;;;5100523;28;20071;-83
2022/02/19 00:46:03;;;;;;;2.40;1.90;;;1.70;97.50;;;;;;5103256;28;20504;-85
2022/02/19 00:48:29;;;;;;;7.93;2.15;;;1.70;97.50;;;;;;5094866;28;20039;-85
2022/02/19 00:50:54;;;;;;;4.88;2.25;;;1.80;97.40;;;;;;5113699;28;20623;-83
2022/02/19 00:53:20;;;;;;;2.65;1.95;;;1.80;97.20;;;;;;5099214;28;20106;-85
2022/02/19 00:55:46;;;;;;;3.38;1.85;;;1.80;97.10;;;;;;5093574;28;20036;-85
2022/02/19 00:58:12;;;;;;;3.25;2.22;;;1.80;97.00;;;;;;5095748;28;20020;-84
2022/02/19 01:00:38;;;;;;;8.10;2.45;;;1.80;97.00;;;;;;5093707;28;20027;-84
2022/02/19 01:03:03;;;;;;;3.10;2.35;;;1.80;97.00;;;;;;5094147;28;20393;-86
2022/02/19 01:05:29;;;;;;;4.80;1.90;;;1.80;97.00;;;;;;5095674;28;20032;-87
2022/02/19 01:07:55;;;;;;;3.90;3.00;;;1.90;97.00;;;;;;5095968;28;20020;-87
2022/02/19 01:10:22;;;;;;;3.03;2.05;;;1.80;96.80;;;;;;5093508;28;20048;-86
2022/02/19 01:12:47;;;;;;;3.35;2.42;;;1.90;96.80;;;;;;5094980;28;20016;-86
2022/02/19 01:15:13;;;;;;;4.57;3.20;;;1.90;96.80;;;;;;5093422;28;20524;-86
2022/02/19 01:17:40;;;;;;;3.55;2.47;;;1.90;96.80;;;;;;5093401;28;20111;-86
2022/02/19 01:20:11;;;;;;;5.17;3.00;;;1.90;96.70;;;;;;5106000;28;20099;-85
2022/02/19 01:22:45;;;;;;;9.02;2.85;;;1.90;96.80;;;;;;5096535;28;20032;-87
2022/02/19 01:25:12;;;;;;;3.80;2.50;;;1.90;96.80;;;;;;5093399;28;20464;-86
2022/02/19 01:27:38;;;;;;;8.85;3.15;;;2.00;96.80;;;;;;5110067;28;20489;-86
2022/02/19 01:30:06;;;;;;;5.03;2.75;;;1.90;96.70;;;;;;5116597;28;20031;-87
2022/02/19 01:32:32;;;;;;;7.35;2.75;;;1.90;96.60;;;;;;5128642;28;20069;-86
2022/02/19 01:34:58;;;;;;;4.13;2.75;;;1.90;96.70;;;;;;5139534;27;20030;-83
2022/02/19 01:37:25;;;;;;;7.70;2.67;;;1.90;96.70;;;;;;5137817;28;20023;-85
2022/02/19 01:39:51;;;;;;;3.30;2.50;;;1.90;96.80;;;;;;5112008;28;20028;-86
2022/02/19 01:42:17;;;;;;;4.63;2.42;;;1.90;96.70;;;;;;5116494;28;20096;-84
2022/02/19 01:44:46;;;;;;;2.70;2.13;;;1.90;96.80;;;;;;5111198;28;20082;-86
2022/02/19 01:47:12;;;;;;;4.75;2.75;;;1.90;96.80;;;;;;5094321;28;20024;-85
2022/02/19 01:49:39;;;;;;;6.55;2.70;;;1.90;96.90;;;;;;5094232;28;20431;-85
2022/02/19 01:52:11;;;;;;;4.25;2.60;;;1.90;96.90;;;;;;5091979;28;20039;-86
2022/02/19 01:54:38;;;;;;;4.13;2.30;;;2.00;96.90;;;;;;5094046;28;20043;-86
2022/02/19 01:57:04;;;;;;;3.55;2.22;;;2.00;96.80;;;;;;5094851;28;20175;-84
2022/02/19 01:59:31;;;;;;;5.20;2.30;;;2.10;96.80;;;;;;5130800;28;20061;-85
2022/02/19 02:01:57;;;;;;;4.53;2.30;;;2.10;96.80;;;;;;5137363;28;20016;-84
2022/02/19 02:04:23;;;;;;;5.10;2.72;;;2.10;96.70;;;;;;5117570;28;20034;-85
2022/02/19 02:06:48;;;;;;;4.22;2.45;;;2.10;96.70;;;;;;5094771;28;20047;-86
2022/02/19 02:09:16;;;;;;;6.07;3.10;;;2.10;96.80;;;;;;5093865;28;20024;-85
2022/02/19 02:11:41;;;;;;;4.68;2.67;;;2.10;96.80;;;;;;5093399;28;20103;-85
2022/02/19 02:14:08;;;;;;;4.00;2.60;;;2.10;96.90;;;;;;5091807;28;20071;-87
2022/02/19 02:16:42;;;;;;;2.67;2.30;;;2.10;97.00;;;;;;5093376;28;20097;-86
2022/02/19 02:19:09;;;;;;;5.22;2.63;;;2.10;97.00;;;;;;5092252;28;20020;-85
2022/02/19 02:21:39;;;;;;;5.47;2.80;;;2.10;97.10;;;;;;5093543;28;20035;-86
2022/02/19 02:24:06;;;;;;;4.60;3.05;;;2.20;97.00;;;;;;5092575;28;20496;-84
2022/02/19 02:26:32;;;;;;;4.03;2.63;;;2.20;97.00;;;;;;5092038;28;20016;-86
2022/02/19 02:28:58;;;;;;;4.88;2.55;;;2.20;96.90;;;;;;5093107;28;20393;-86
2022/02/19 02:31:24;;;;;;;5.63;2.80;;;2.20;96.90;;;;;;5093245;28;20016;-86
2022/02/19 02:33:51;;;;;;;5.88;3.33;;;2.10;96.90;;;;;;5093207;28;20031;-88
2022/02/19 02:36:18;;;;;;;4.63;3.42;;;2.10;96.90;;;;;;5095187;28;20078;-86
2022/02/19 02:38:45;;;;;;;3.80;3.15;;;2.10;96.90;;;;;;5094366;28;20077;-84
2022/02/19 02:41:11;;;;;;;5.93;2.88;;;2.10;96.90;;;;;;5094798;28;20027;-84
2022/02/19 02:43:37;;;;;;;4.88;3.38;;;2.10;96.90;;;;;;5100482;28;20481;-85
2022/02/19 02:46:03;;;;;;;4.95;2.90;;;2.10;97.00;;;;;;5107318;28;20028;-86
2022/02/19 02:48:30;;;;;;;4.78;2.97;;;2.10;97.10;;;;;;5110305;28;20035;-86
2022/02/19 02:50:56;;;;;;;6.03;4.05;;;2.10;97.10;;;;;;5107753;28;20063;-86
2022/02/19 02:53:26;;;;;;;7.03;3.50;;;2.10;97.20;;;;;;5112047;28;20092;-84
2022/02/19 02:55:52;;;;;;;4.72;3.65;;;2.10;97.30;;;;;;5101344;28;20032;-85
2022/02/19 02:58:18;;;;;;;5.13;4.63;;;2.10;97.20;;;;;;5094760;28;20022;-85
2022/02/19 03:00:44;;;;;;;6.68;3.13;;;2.10;97.20;;;;;;5094648;28;20048;-84
2022/02/19 03:03:10;;;;;;;4.45;3.10;;;2.00;97.20;;;;;;5098480;28;20020;-85
2022/02/19 03:05:36;;;;;;;5.00;3.40;;;2.00;97.40;;;;;;5103410;28;20031;-85
2022/02/19 03:08:03;;;;;;;4.68;3.22;;;2.00;97.40;;;;;;5100258;28;20110;-83
2022/02/19 03:10:29;;;;;;;6.47;3.58;;;2.00;97.30;;;;;;5097655;28;20032;-85
2022/02/19 03:12:55;;;;;;;4.30;3.60;;;2.10;97.30;;;;;;5097142;28;20023;-85
2022/02/19 03:15:21;;;;;;;5.20;3.90;;;2.10;97.30;;;;;;5096574;28;20098;-85
2022/02/19 03:17:48;;;;;;;5.75;3.42;;;2.00;97.30;;;;;;5096617;28;20016;-86
2022/02/19 03:20:16;;;;;;;6.38;3.90;;;2.00;97.30;;;;;;5096387;28;20124;-85
2022/02/19 03:22:44;;;;;;;4.70;3.80;;;1.90;97.40;;;;;;5096129;28;20030;-82
2022/02/19 03:25:14;;;;;;;6.70;3.95;;;2.00;97.50;;;;;;5095856;28;20455;-83
2022/02/19 03:27:41;;;;;;;4.47;3.35;;;2.00;97.50;;;;;;5095938;28;20074;-83
2022/02/19 03:30:09;;;;;;;4.78;3.13;;;2.00;97.40;;;;;;5095930;28;20113;-84
2022/02/19 03:32:35;;;;;;;5.43;4.05;;;2.00;97.50;;;;;;5095987;28;20032;-83
2022/02/19 03:35:01;;;;;;;4.53;3.28;;;2.00;97.50;;;;;;5096044;28;20054;-84
2022/02/19 03:37:27;;;;;;;6.57;4.38;;;2.00;97.50;;;;;;5095775;28;20099;-81
2022/02/19 03:40:11;;;;;;;4.40;3.25;;;1.90;97.60;;;;;;5095431;28;20057;-83
2022/02/19 03:42:39;;;;;;;4.88;3.50;;;2.00;97.60;;;;;;5100250;28;20020;-80
2022/02/19 03:45:06;;;;;;;;;;;2.00;97.60;;;;;;5110151;28;20020;-80
2022/02/19 03:47:32;;;;;;;5.10;3.30;;;2.00;97.50;;;;;;5117460;28;19911;-82
2022/02/19 03:49:57;;;;;;;5.22;3.22;;;2.00;97.50;;;;;;5128572;28;20389;-84
2022/02/19 03:52:23;;;;;;;5.70;3.60;;;2.00;97.40;;;;;;5132114;28;20027;-82
2022/02/19 03:54:49;;;;;;;5.03;3.75;;;2.10;97.40;;;;;;5126884;28;20189;-83
2022/02/19 03:57:15;;;;;;;4.82;3.92;;;2.00;97.40;;;;;;5115345;28;20023;-83
2022/02/19 03:59:41;;;;;;;4.53;3.58;;;2.00;97.50;;;;;;5114817;28;20035;-82
2022/02/19 04:02:07;;;;;;;5.75;3.40;;;2.00;97.50;;;;;;5116460;28;20027;-83
2022/02/19 04:04:33;;;;;;;7.63;3.50;;;2.10;97.50;;;;;;5098037;28;20020;-85
2022/02/19 04:06:59;;;;;;;6.35;3.95;;;2.10;97.40;;;;;;5101481;28;20024;-81
2022/02/19 04:09:24;;;;;;;6.65;3.55;;;2.20;97.40;;;;;;5108351;28;20031;-81
2022/02/19 04:11:50;;;;;;;3.05;2.70;;;2.20;97.30;;;;;;5114863;28;20472;-82
2022/02/19 04:14:16;;;;;;;5.35;3.92;;;2.20;97.20;;;;;;5114612;28;20130;-84
2022/02/19 04:16:42;;;;;;;5.05;3.90;;;2.20;97.20;;;;;;5115156;28;20032;-83
2022/02/19 04:19:08;;;;;;;5.43;3.22;;;2.10;97.30;;;;;;5115344;28;20016;-83
2022/02/19 04:21:33;;;;;;;8.10;3.53;;;2.10;97.30;;;;;;5116407;28;20149;-82
2022/02/19 04:23:59;;;;;;;7.85;3.30;;;2.20;97.30;;;;;;5114104;28;20034;-83
2022/02/19 04:26:25;;;;;;;6.85;4.10;;;2.10;97.20;;;;;;5115797;28;20024;-84
2022/02/19 04:28:51;;;;;;;4.30;2.83;;;2.10;97.30;;;;;;5114445;28;20020;-83
2022/02/19 04:31:17;;;;;;;5.28;4.13;;;2.10;97.20;;;;;;5115798;28;20023;-83
2022/02/19 04:33:43;;;;;;;6.05;3.03;;;2.10;97.20;;;;;;5117641;28;20027;-83
2022/02/19 04:36:09;;;;;;;4.95;2.88;;;2.10;97.30;;;;;;5106974;28;20496;-82
2022/02/19 04:38:35;;;;;;;7.28;3.22;;;2.10;97.30;;;;;;5097809;28;20074;-84
2022/02/19 04:41:01;;;;;;;3.33;2.55;;;2.10;97.20;;;;;;5093190;28;20528;-84
2022/02/19 04:43:27;;;;;;;2.83;2.38;;;2.10;97.20;;;;;;5094562;28;20016;-85
2022/02/19 04:45:53;;;;;;;3.85;2.88;;;2.00;97.20;;;;;;5093454;28;20024;-85
2022/02/19 04:48:19;;;;;;;5.05;3.15;;;2.00;97.30;;;;;;5094717;28;20081;-85
2022/02/19 04:50:44;;;;;;;5.80;3.65;;;2.00;97.40;;;;;;5094572;28;20465;-85
2022/02/19 04:53:10;;;;;;;4.93;3.15;;;2.00;97.50;;;;;;5094560;28;20031;-83
2022/02/19 04:55:36;;;;;;;5.70;3.15;;;2.00;97.50;;;;;;5095157;28;20508;-84
2022/02/19 04:58:03;;;;;;;3.03;2.72;;;2.00;97.60;;;;;;5108129;28;20020;-85
2022/02/19 05:00:29;;;;;;;9.63;3.50;;;1.90;97.60;;;;;;5106611;28;20034;-84
2022/02/19 05:02:55;;;;;;;6.10;3.33;;;1.90;97.70;;;;;;5095957;28;20028;-85
2022/02/19 05:05:21;;;;;;;4.00;2.80;;;1.90;97.70;;;;;;5071638;28;20482;-85
2022/02/19 05:07:47;;;;;;;7.72;3.55;;;1.90;97.80;;;;;;5091768;28;20512;-85
2022/02/19 05:10:13;;;;;;;7.60;3.42;;;1.90;97.90;;;;;;5092825;28;20043;-86
2022/02/19 05:12:41;;;;;;;4.18;2.83;;;1.90;97.90;;;;;;5075415;28;20062;-86
2022/02/19 05:15:15;;;;;;;3.92;3.45;;;1.80;97.90;;;;;;5076043;28;20459;-85
2022/02/19 05:17:49;;;;;;;6.65;3.65;;;1.80;98.00;;;;;;5075219;28;20090;-84
2022/02/19 05:20:19;;;;;;;4.93;3.45;;;1.70;98.00;;;;;;5093325;28;20451;-84
2022/02/19 05:22:45;;;;;;;4.75;2.75;;;1.70;98.20;;;;;;5095134;28;20032;-85
2022/02/19 05:25:11;;;;;;;5.30;2.90;;;1.70;98.40;;;;;;5085609;28;20032;-84
2022/02/19 05:27:37;;;;;;;5.82;3.22;;;1.70;98.40;;;;;;5108163;28;20027;-85
2022/02/19 05:30:04;;;;;;;5.43;3.67;;;1.80;98.40;;;;;;5085259;28;20095;-83
2022/02/19 05:32:30;;;;;;;3.72;2.85;;;1.90;98.30;;;;;;5109068;28;20088;-83
2022/02/19 05:34:56;;;;;;;6.20;2.67;;;1.90;98.20;;;;;;5092140;28;20040;-83
2022/02/19 05:37:22;;;;;;;4.05;2.50;;;1.90;98.00;;;;;;5080155;28;20061;-86
2022/02/19 05:39:47;;;;;;;5.40;2.63;;;2.00;97.90;;;;;;5058423;28;20063;-85
2022/02/19 05:42:13;;;;;;;3.03;2.13;;;2.00;97.70;;;;;;5082958;28;20111;-85
2022/02/19 05:44:39;;;;;;;3.35;3.03;;;2.00;97.60;;;;;;5116650;28;20036;-82
2022/02/19 05:47:05;;;;;;;3.45;2.47;;;2.10;97.50;;;;;;5109081;28;20491;-85
2022/02/19 05:49:31;;;;;;;3.15;2.10;;;2.10;97.30;;;;;;5119482;28;20031;-85
2022/02/19 05:51:57;;;;;;;5.03;2.97;;;2.00;97.10;;;;;;5100848;28;20046;-85
2022/02/19 05:54:23;;;;;;;4.50;2.67;;;2.00;97.30;;;;;;5100509;28;20032;-84
2022/02/19 05:56:52;;;;;;;2.90;2.33;;;2.00;97.30;;;;;;5102850;28;20028;-85
2022/02/19 05:59:18;;;;;;;7.10;3.15;;;2.10;97.20;;;;;;5116857;28;20074;-84
2022/02/19 06:01:44;;;;;;;3.00;2.33;;;2.10;97.00;;;;;;5097574;28;20408;-83
2022/02/19 06:04:10;;;;;;;7.72;3.33;;;2.00;96.90;;;;;;5094503;28;20035;-84
2022/02/19 06:06:37;;;;;;;3.83;2.45;;;1.90;97.10;;;;;;5093514;28;20112;-84
2022/02/19 06:09:03;;;;;;;6.05;2.40;;;1.80;97.20;;;;;;5097362;28;20484;-86
2022/02/19 06:11:29;;;;;;;5.97;2.83;;;1.80;97.20;;;;;;5108259;28;20035;-83
2022/02/19 06:13:55;;;;;;;5.22;3.22;;;1.80;97.30;;;;;;5112299;28;20032;-85
2022/02/19 06:16:21;;;;;;;11.43;4.18;;;1.80;97.40;;;;;;5113729;28;20035;-85
2022/02/19 06:18:46;;;;;;;5.05;3.42;;;1.90;97.40;;;;;;5113775;28;20472;-86
2022/02/19 06:21:15;;;;;;;3.50;2.75;;;2.00;97.30;;;;;;5100968;28;20032;-85
2022/02/19 06:23:41;;;;;;;4.82;3.05;;;2.00;96.90;;;;;;5096540;28;20496;-85
2022/02/19 06:26:07;;;;;;;3.65;2.92;;;1.90;97.30;;;;;;5095292;28;20091;-87
2022/02/19 06:28:33;;;;;;;3.95;2.45;;;1.90;97.00;;;;;;5092632;28;20047;-87
2022/02/19 06:30:58;;;;;;;4.25;3.60;;;1.80;97.10;;;;;;5098977;28;20024;-87
2022/02/19 06:33:24;;;;;;;4.40;2.47;;;1.90;97.10;;;;;;5111895;28;20107;-86
2022/02/19 06:35:50;;;;;;;4.85;3.10;;;2.00;97.10;;;;;;5107861;28;20040;-86
2022/02/19 06:38:16;;;;;;;3.83;3.05;;;2.00;97.00;;;;;;5096437;28;20023;-88
2022/02/19 06:40:42;;;;;;;6.45;2.55;;;2.10;96.90;;;;;;5094075;28;20114;-89
2022/02/19 06:43:08;;;;;;;3.47;2.33;;;2.00;96.80;;;;;;5095636;28;20020;-87
2022/02/19 06:45:35;;;;;;;4.55;2.80;;;2.00;96.50;;;;;;5096570;28;20024;-90
2022/02/19 06:48:01;;;;;;;4.32;2.70;;;2.00;96.50;;;;;;5099002;28;20540;-89
2022/02/19 06:50:28;;;;;;;3.67;3.00;;;2.10;96.50;;;;;;5096688;28;20062;-90
2022/02/19 06:52:55;;;;;;;6.50;2.67;;;2.20;96.50;;;;;;5099233;28;20042;-87
2022/02/19 06:55:21;;;;;;;3.20;2.40;;;2.20;96.30;;;;;;5095744;28;20131;-87
2022/02/19 06:57:48;;;;;;;3.73;2.60;;;2.40;96.30;;;;;;5099642;28;20020;-85
2022/02/19 07:00:15;;;;;;;2.63;2.33;;;2.40;96.10;;;;;;5091805;28;20106;-84
2022/02/19 07:02:41;;;;;;;3.60;2.83;;;2.50;95.70;;;;;;5093882;28;20457;-85
2022/02/19 07:05:08;;;;;;;4.47;3.10;;;2.50;95.70;;;;;;5093776;28;20035;-85
2022/02/19 07:07:35;;;;;;;3.95;2.90;;;2.60;95.80;;;;;;5094309;28;20020;-83
2022/02/19 07:10:02;;;;;;;7.72;2.72;;;2.70;95.50;;;;;;5096120;28;20020;-85
2022/02/19 07:12:28;;;;;;;3.95;2.33;;;2.70;95.10;;;;;;5096006;28;20020;-83
2022/02/19 07:14:54;;;;;;;6.18;3.13;;;2.70;94.90;;;;;;5092507;28;20127;-83
2022/02/19 07:17:19;;;;;;;3.92;3.05;;;2.70;94.90;;;;;;5093208;28;20477;-84
2022/02/19 07:19:48;;;;;;;5.55;3.55;;;2.80;94.70;;;;;;5092215;28;20028;-83
2022/02/19 07:22:14;;;;;;;3.58;2.53;;;2.70;94.80;;;;;;5093470;28;20028;-82
2022/02/19 07:24:39;;;;;;;6.22;3.35;;;2.80;94.80;;;;;;5095603;28;20494;-85
2022/02/19 07:27:06;;;;;;;3.75;3.22;;;2.90;94.90;;;;;;5092799;28;20020;-86
2022/02/19 07:29:32;;;;;;;4.45;3.05;;;3.10;94.70;;;;;;5096577;28;20115;-87
2022/02/19 07:31:57;;;;;;;6.00;3.90;;;3.20;94.40;;;;;;5102328;28;20080;-86
2022/02/19 07:34:23;;;;;;;6.03;2.30;;;3.30;94.30;;;;;;5103384;28;20539;-87
2022/02/19 07:36:49;;;;;;;6.32;3.42;;;3.40;93.60;;;;;;5131323;28;20055;-86
2022/02/19 07:39:15;;;;;;;6.18;4.10;;;3.30;93.40;;;;;;5102782;28;20028;-83
2022/02/19 07:41:42;;;;;;;5.85;3.97;;;3.40;93.60;;;;;;5104232;28;20024;-86
2022/02/19 07:44:08;;;;;;;4.30;3.10;;;3.60;93.50;;;;;;5098981;28;20089;-87
2022/02/19 07:46:34;;;;;;;7.10;3.88;;;3.70;93.10;;;;;;5112384;28;20118;-87
2022/02/19 07:58:18;;;;;;;5.03;3.58;;;3.70;93.00;;;;;;5100334;28;20016;-88
2022/02/19 08:00:01;;;;;;;3.55;2.35;;;3.90;92.00;;;;;;5097710;28;20418;-85
2022/02/19 08:02:27;;;;;;;6.05;3.72;;;3.80;92.20;;;;;;5096700;28;20386;-85
2022/02/19 08:04:53;;;;;;;4.13;3.15;;;3.80;92.40;;;;;;5103368;28;20039;-87
2022/02/19 08:07:18;;;;;;;4.45;3.00;;;3.90;92.10;;;;;;5124984;28;20028;-88
2022/02/19 08:09:44;;;;;;;5.88;3.63;;;3.90;92.10;;;;;;5133595;28;20047;-86
2022/02/19 08:12:10;;;;;;;6.97;3.70;;;3.90;92.10;;;;;;5117980;28;20119;-83
2022/02/19 08:14:36;;;;;;;7.18;2.60;;;4.00;92.00;;;;;;5109372;28;20051;-80
2022/02/19 08:17:02;;;;;;;4.85;3.40;;;4.20;92.00;;;;;;5099048;28;20035;-80
2022/02/19 08:19:27;;;;;;;6.80;3.53;;;4.30;91.40;;;;;;5096500;28;20036;-87
2022/02/19 08:21:53;;;;;;;6.57;3.90;;;4.40;91.60;;;;;;5100858;28;20157;-83
2022/02/19 08:24:20;;;;;;;5.95;3.30;;;4.60;91.20;;;;;;5106210;28;20016;-84
2022/02/19 08:26:50;;;;;;;6.28;3.35;;;4.60;90.50;;;;;;5111584;28;20016;-89
2022/02/19 08:29:19;;;;;;;7.07;3.80;;;4.70;90.40;;;;;;5102419;28;20047;-80
2022/02/19 08:31:45;;;;;;;4.63;2.15;;;4.70;90.40;;;;;;5096850;28;20396;-82
2022/02/19 08:34:11;;;;;;;4.88;2.35;;;4.80;90.10;;;;;;5096627;28;20028;-82
2022/02/19 08:36:36;;;;;;;6.72;2.88;;;4.90;90.00;;;;;;5100879;28;20020;-81
2022/02/19 08:39:05;;;;;;;6.00;2.60;;;4.80;89.10;;;;;;5104834;28;20031;-78
2022/02/19 08:41:31;;;;;;;3.42;1.90;;;4.90;89.40;;;;;;5097547;28;20082;-78
2022/02/19 08:43:57;;;;;;;5.97;2.00;;;4.80;88.10;;;;;;5098607;28;20020;-83
2022/02/19 08:46:23;;;;;;;3.38;2.22;;;4.60;88.70;;;;;;5104454;28;20489;-80
2022/02/19 08:48:49;;;;;;;5.32;2.65;;;4.50;89.10;;;;;;5095155;28;20435;-79
2022/02/19 08:51:15;;;;;;;5.38;3.10;;;4.40;90.10;;;;;;5096163;28;20028;-83
2022/02/19 08:53:40;;;;;;;3.45;2.20;;;4.50;90.10;;;;;;5098403;28;20080;-84
2022/02/19 08:56:06;;;;;;;4.40;2.17;;;4.40;89.20;;;;;;5098840;28;20032;-85
2022/02/19 08:58:32;;;;;;;4.22;2.67;;;4.30;89.40;;;;;;5096996;28;20098;-87
2022/02/19 09:00:58;;;;;;;9.60;2.67;;;4.30;90.10;;;;;;5093221;28;20502;-77
2022/02/19 09:03:24;;;;;;;5.25;2.97;;;4.40;90.10;;;;;;5094600;28;20354;-80
2022/02/19 09:05:50;;;;;;;3.20;2.20;;;4.40;89.80;;;;;;5093676;28;20031;-80
2022/02/19 09:08:16;;;;;;;3.33;2.70;;;4.30;89.20;;;;;;5094519;28;20024;-82
2022/02/19 09:10:41;;;;;;;2.65;1.95;;;4.20;90.10;;;;;;5094656;28;20055;-87
2022/02/19 09:13:07;;;;;;;5.18;2.63;;;4.20;89.10;;;;;;5094487;28;20016;-86
2022/02/19 09:15:33;;;;;;;3.00;2.15;;;4.10;90.00;;;;;;5094519;28;20040;-82
2022/02/19 09:18:03;;;;;;;4.97;2.65;;;4.10;89.80;;;;;;5098187;28;20019;-84
2022/02/19 09:20:29;;;;;;;2.92;2.25;;;4.00;90.10;;;;;;5095832;28;20023;-82
2022/02/19 09:22:55;;;;;;;3.90;2.22;;;4.00;90.30;;;;;;5096427;28;20036;-83
2022/02/19 09:25:21;;;;;;;4.07;1.95;;;4.10;90.10;;;;;;5100315;28;20479;-78
2022/02/19 09:27:47;;;;;;;3.05;1.52;;;4.10;89.70;;;;;;5098808;28;20020;-83
2022/02/19 09:30:14;;;;;;;3.78;2.28;;;4.10;89.80;;;;;;5107408;28;20057;-80
2022/02/19 09:32:40;;;;;;;2.80;2.53;;;4.00;89.70;;;;;;5117655;28;20024;-84
2022/02/19 09:35:06;;;;;;;2.85;2.33;;;4.00;90.00;;;;;;5103298;28;20031;-85
2022/02/19 09:37:40;;;;;;;4.75;2.50;;;4.00;90.00;;;;;;5105772;28;20020;-91
2022/02/19 09:40:46;;;;;;;4.72;2.40;;;4.10;90.10;;;;;;5062986;28;20044;-92
2022/02/19 09:43:53;;;;;;;2.88;2.15;;;4.10;89.70;;;;;;5089753;28;20091;-94
2022/02/19 09:46:26;;;;;;;6.28;2.33;;;4.10;89.30;;;;;;5093785;28;20032;-94
2022/02/19 09:48:55;;;;;;;3.45;2.15;;;4.00;89.30;;;;;;5101909;28;20028;-91
2022/02/19 09:51:21;;;;;;;3.25;2.00;;;4.00;89.50;;;;;;5098758;28;20028;-89
2022/02/19 09:53:59;;;;;;;3.08;2.28;;;4.00;89.20;;;;;;5099705;28;20084;-91
2022/02/19 09:56:28;;;;;;;2.95;2.10;;;4.00;89.60;;;;;;5099313;28;20062;-93
2022/02/19 09:58:55;;;;;;;3.72;2.50;;;4.00;89.30;;;;;;5107820;28;20049;-86
2022/02/19 10:01:23;;;;;;;4.72;2.75;;;3.90;90.10;;;;;;5119129;28;20080;-87
2022/02/19 10:04:02;;;;;;;4.93;2.70;;;3.90;90.30;;;;;;5119174;28;20450;-87
2022/02/19 10:06:33;;;;;;;5.43;2.15;;;3.90;90.70;;;;;;5117957;28;20039;-88
2022/02/19 10:09:14;;;;;;;4.80;2.38;;;3.70;91.10;;;;;;5119624;28;20034;-87
2022/02/19 10:11:41;;;;;;;6.75;3.67;;;3.50;92.10;;;;;;5121295;28;20027;-91
2022/02/19 10:14:19;;;;;;;6.63;3.63;;;3.20;93.40;;;;;;5131133;28;20014;-89
2022/02/19 10:17:06;;;;;;;5.90;2.97;;;3.00;94.20;;;;;;5138491;28;20012;-87
2022/02/19 10:19:59;;;;;;;5.53;3.08;;;2.90;95.10;;;;;;5135780;28;20004;-89
2022/02/19 10:22:56;;;;;;;5.50;3.65;;;2.80;95.80;;;;;;5125233;28;20079;-88
2022/02/19 10:25:24;;;;;;;2.60;2.40;;;2.70;96.60;;;;;;5107329;28;20492;-83
2022/02/19 10:28:07;;;;;;;10.85;3.47;;;2.50;97.40;;;;;;5111662;28;20109;-81
2022/02/19 10:30:34;;;;;;;4.70;3.78;;;2.30;98.40;;;;;;5113256;28;20045;-83
2022/02/19 10:33:04;;;;;;;4.20;2.80;;;2.20;99.00;;;;;;5117108;28;20111;-81
2022/02/19 10:35:42;;;;;;;6.05;3.45;;;2.00;99.50;;;;;;5106037;28;20102;-82
2022/02/19 10:38:11;;;;;;;8.73;3.55;;;2.00;99.90;;;;;;5123033;28;20055;-85
2022/02/19 10:40:46;;;;;;;8.10;3.53;;;1.90;99.90;;;;;;5093927;28;20094;-85
2022/02/19 10:43:23;;;;;;;6.97;3.95;;;1.70;99.90;;;;;;5097618;28;20053;-84
2022/02/19 10:46:04;;;;;;;8.43;3.25;;;1.70;99.90;;;;;;5114915;28;20031;-84
2022/02/19 10:48:35;;;;;;;4.47;3.35;;;1.70;99.90;;;;;;5114319;28;20030;-85
2022/02/19 10:51:11;;;;;;;6.57;4.18;;;1.60;99.90;;;;;;5093694;28;20488;-87
2022/02/19 10:53:38;;;;;;;7.38;4.05;;;1.50;99.90;;;;;;5092633;28;20043;-82
2022/02/19 10:56:11;;;;;;;;;;;1.40;99.90;;;;;;5093658;28;20111;-83
2022/02/19 10:58:37;;;;;;;4.13;2.75;;;1.50;99.90;;;;;;5093987;28;19904;-85
2022/02/19 11:01:19;;;;;;;8.68;4.75;;;1.50;99.90;;;;;;5092638;28;20012;-82
2022/02/19 11:03:45;;;;;;;7.55;4.85;;;1.50;99.90;;;;;;5092795;28;20080;-83
2022/02/19 11:06:11;;;;;;;7.00;5.07;;;1.50;99.90;;;;;;5095822;28;20029;-82
2022/02/19 11:08:37;;;;;;;7.38;5.03;;;1.50;99.90;;;;;;5092336;28;20070;-82
2022/02/19 11:11:03;;;;;;;9.20;6.05;;;1.60;99.90;;;;;;5092985;28;20027;-82
2022/02/19 11:13:31;;;;;;;9.32;3.97;;;1.60;99.90;;;;;;5092531;28;20028;-81
2022/02/19 11:15:59;;;;;;;11.02;4.32;;;1.60;99.90;;;;;;5092121;28;20119;-82
2022/02/19 11:18:27;;;;;;;7.40;5.25;;;1.60;99.90;;;;;;5094401;28;20024;-84
2022/02/19 11:20:57;;;;;;;7.95;5.28;;;1.50;99.90;;;;;;5098401;28;20055;-83
2022/02/19 11:23:24;;;;;;;12.52;6.65;;;1.50;99.90;;;;;;5108699;28;20017;-83
2022/02/19 11:25:50;;;;;;;11.05;7.18;;;1.50;99.90;;;;;;5110181;28;20052;-83
2022/02/19 11:28:16;;;;;;;10.63;5.43;;;1.50;99.90;;;;;;5095692;28;20032;-83
2022/02/19 11:30:52;;;;;;;9.25;4.85;;;1.50;99.90;;;;;;5096219;28;20671;-86
2022/02/19 11:33:20;;;;;;;10.55;5.22;;;1.40;99.90;;;;;;5102744;28;20068;-85
2022/02/19 11:35:50;;;;;;;;;;;1.30;99.90;;;;;;5104957;28;20081;-88
2022/02/19 11:38:35;;;;;;;5.63;4.65;;;1.30;99.90;;;;;;5101745;28;19962;-80
2022/02/19 11:41:03;;;;;;;5.45;4.45;;;1.10;99.90;;;;;;5113385;28;20024;-80
2022/02/19 11:43:44;;;;;;;5.38;4.25;;;1.10;99.90;;;;;;5121828;28;20027;-81
2022/02/19 11:46:13;;;;;;;6.30;3.55;;;1.00;99.90;;;;;;5104494;28;20326;-82
2022/02/19 11:48:44;;;;;;;6.40;4.18;;;0.90;99.90;;;;;;5096879;28;20508;-80
2022/02/19 11:51:16;;;;;;;8.07;4.32;;;0.80;99.90;;;;;;5103456;28;20030;-85
2022/02/19 11:53:44;;;;;;;10.50;4.75;;;0.70;99.90;;;;;;5097367;28;20028;-87
2022/02/19 11:56:24;;;;;;;15.20;6.30;;;0.70;99.90;;;;;;5095482;28;20036;-81
2022/02/19 11:58:51;;;;;;;6.78;4.53;;;0.70;99.90;;;;;;5095241;28;20028;-82
2022/02/19 12:01:45;;;;;;;7.90;4.75;;;0.80;99.90;;;;;;5104923;28;20024;-81
2022/02/19 12:04:12;;;;;;;13.55;5.80;;;0.80;99.90;;;;;;5058241;28;20429;-82
2022/02/19 12:06:39;;;;;;;6.90;5.50;;;0.90;99.90;;;;;;5095392;28;20489;-82
2022/02/19 12:09:13;;;;;;;22.35;5.28;;;0.90;99.90;;;;;;5094621;28;20027;-78
2022/02/19 12:12:04;;;;;;;7.30;5.43;;;0.90;99.90;;;;;;5093687;28;20497;-83
2022/02/19 12:14:44;;;;;;;8.85;5.72;;;0.80;99.90;;;;;;5097928;28;20051;-83
2022/02/19 12:17:11;;;;;;;12.13;6.60;;;0.80;99.90;;;;;;5095604;28;20028;-80
2022/02/19 12:19:52;;;;;;;;;;;0.70;99.90;;;;;;5096976;28;20055;-80
2022/02/19 12:22:36;;;;;;;8.57;5.57;;;0.80;99.90;;;;;;5094417;28;19941;-81
2022/02/19 12:25:07;;;;;;;11.30;5.50;;;0.70;99.90;;;;;;5109045;28;20111;-79
2022/02/19 12:27:34;;;;;;;7.32;6.30;;;0.60;99.90;;;;;;5106142;28;20442;-80
2022/02/19 12:30:36;;;;;;;6.18;4.18;;;0.70;99.90;;;;;;5097149;28;20028;-79
2022/02/19 12:33:02;;;;;;;9.63;5.22;;;0.80;99.90;;;;;;5094836;28;20090;-78
2022/02/19 12:35:38;;;;;;;6.32;4.30;;;0.90;99.90;;;;;;5095356;28;20043;-81
2022/02/19 12:38:04;;;;;;;9.77;6.10;;;1.00;99.90;;;;;;5096260;28;20028;-82
2022/02/19 12:40:31;;;;;;;11.75;6.97;;;0.90;99.90;;;;;;5101282;28;20027;-82
2022/02/19 12:42:57;;;;;;;5.15;4.65;;;1.00;99.90;;;;;;5101863;27;20027;-82
2022/02/19 12:45:27;;;;;;;8.63;4.70;;;1.10;99.90;;;;;;5096777;28;20038;-83
2022/02/19 12:47:54;;;;;;;5.72;3.55;;;1.00;99.90;;;;;;5103752;28;20345;-83
2022/02/19 12:50:21;;;;;;;9.77;6.65;;;1.00;99.90;;;;;;5113020;28;20063;-80
2022/02/19 12:52:52;;;;;;;9.55;6.43;;;1.00;99.90;;;;;;5094162;28;20020;-83
2022/02/19 12:55:19;;;;;;;17.15;6.72;;;1.00;99.90;;;;;;5095903;28;20114;-82
2022/02/19 12:57:50;;;;;;;6.95;5.43;;;1.10;99.90;;;;;;5103509;28;20031;-81
2022/02/19 13:00:17;;;;;;;13.65;5.55;;;1.00;99.90;;;;;;5096807;28;20023;-83
2022/02/19 13:02:45;;;;;;;11.40;4.83;;;1.00;99.90;;;;;;5094363;28;20085;-85
2022/02/19 13:05:13;;;;;;;9.75;6.13;;;1.00;99.90;;;;;;5094621;28;20400;-82
2022/02/19 13:07:39;;;;;;;10.80;7.13;;;1.10;99.90;;;;;;5100119;28;20068;-81
2022/02/19 13:10:07;;;;;;;10.18;6.38;;;1.10;99.90;;;;;;5115430;28;20023;-84
2022/02/19 13:12:34;;;;;;;11.80;7.03;;;1.10;99.90;;;;;;5117025;28;20064;-86